Time;durP1;ratioP1;P1;durP2;ratioP2;P2;SDS_P1;SDS_P2;PMS_P1;PMS_P2;Temp;Humidity;BMP_temperature;BMP_pressure;BME280_temperature;BME280_humidity;BME280_pressure;Samples;Min_cycle;Max_cycle;Signal;HPM_P1;HPM_P2
2020/12/29 00:01:35;;;;;;;15.93;9.50;;;;;;;3.02;73.04;97306.44;5036491;28;20021;-93
2020/12/29 00:04:05;;;;;;;17.95;10.85;;;;;;;2.68;73.81;97304.97;5034648;28;20108;-92
2020/12/29 00:06:30;;;;;;;15.13;8.82;;;;;;;2.82;72.05;97297.78;5031440;28;20091;-93
2020/12/29 00:08:56;;;;;;;15.95;8.90;;;;;;;2.86;73.62;97301.75;5031715;28;20022;-93
2020/12/29 00:11:22;;;;;;;14.05;8.70;;;;;;;2.95;74.36;97300.97;5031799;28;20026;-93
2020/12/29 00:13:47;;;;;;;13.23;8.05;;;;;;;2.92;74.87;97296.88;5032050;28;20032;-93
2020/12/29 00:16:13;;;;;;;15.27;8.52;;;;;;;2.98;74.69;97305.88;5032526;28;20364;-93
2020/12/29 00:18:38;;;;;;;14.63;7.90;;;;;;;3.00;74.66;97303.97;5031723;28;20025;-93
2020/12/29 00:21:04;;;;;;;13.93;9.20;;;;;;;2.92;73.36;97296.88;5035360;28;20033;-92
2020/12/29 00:23:29;;;;;;;14.35;7.72;;;;;;;3.04;73.86;97307.13;5037347;28;20459;-93
2020/12/29 00:25:55;;;;;;;14.93;8.55;;;;;;;3.01;74.40;97305.63;5032335;28;20507;-93
2020/12/29 00:28:21;;;;;;;11.98;7.32;;;;;;;2.63;73.69;97301.97;5049029;28;20030;-93
2020/12/29 00:30:47;;;;;;;15.27;8.27;;;;;;;2.60;73.20;97328.13;5033116;28;20360;-93
2020/12/29 00:33:12;;;;;;;19.02;9.30;;;;;;;2.33;74.65;97324.31;5032193;28;20021;-93
2020/12/29 00:35:38;;;;;;;17.17;9.30;;;;;;;2.51;74.59;97323.72;5030163;28;20049;-92
2020/12/29 00:38:03;;;;;;;13.93;7.55;;;;;;;2.71;73.91;97322.84;5032256;28;20081;-93
2020/12/29 00:40:29;;;;;;;18.65;9.35;;;;;;;2.71;74.92;97319.44;5032234;28;20033;-93
2020/12/29 00:42:54;;;;;;;23.23;8.93;;;;;;;2.85;74.52;97326.03;5032258;28;20035;-93
2020/12/29 00:45:19;;;;;;;16.55;9.18;;;;;;;2.90;73.75;97332.47;5031974;28;20075;-93
2020/12/29 00:47:45;;;;;;;16.92;8.20;;;;;;;2.93;74.77;97321.03;5030246;28;20403;-92
2020/12/29 00:50:10;;;;;;;14.13;8.90;;;;;;;2.99;74.90;97317.91;5033333;28;20047;-92
2020/12/29 00:52:35;;;;;;;15.25;9.15;;;;;;;3.09;74.83;97325.69;5032645;28;20037;-91
2020/12/29 00:55:01;;;;;;;16.77;9.77;;;;;;;3.25;74.77;97333.78;5047436;28;20541;-93
2020/12/29 00:57:26;;;;;;;20.95;10.60;;;;;;;3.24;74.46;97320.94;5048791;28;20404;-93
2020/12/29 00:59:51;;;;;;;22.85;10.15;;;;;;;3.23;74.28;97327.09;5030227;28;20025;-93
2020/12/29 01:02:17;;;;;;;16.83;9.38;;;;;;;3.02;73.47;97328.00;5031033;28;20033;-93
2020/12/29 01:04:42;;;;;;;23.33;9.82;;;;;;;3.09;73.96;97318.72;5033139;28;20064;-93
2020/12/29 01:07:07;;;;;;;16.35;9.23;;;;;;;3.20;74.16;97320.41;5030345;28;20033;-92
2020/12/29 01:09:33;;;;;;;18.75;10.05;;;;;;;3.23;74.43;97314.13;5032807;28;20026;-93
2020/12/29 01:11:58;;;;;;;22.70;10.38;;;;;;;2.76;73.23;97320.72;5031324;28;20029;-93
2020/12/29 01:14:23;;;;;;;18.90;9.52;;;;;;;2.93;74.80;97326.19;5033193;28;20017;-93
2020/12/29 01:16:49;;;;;;;16.80;8.25;;;;;;;3.06;74.12;97331.13;5047913;28;20026;-93
2020/12/29 01:19:14;;;;;;;15.27;8.02;;;;;;;3.13;74.05;97333.06;5030481;28;20383;-93
2020/12/29 01:21:40;;;;;;;16.42;8.90;;;;;;;3.16;74.65;97327.63;5033934;28;20394;-93
2020/12/29 01:24:05;;;;;;;14.80;8.13;;;;;;;3.12;73.74;97318.47;5036393;28;20021;-93
2020/12/29 01:26:31;;;;;;;9.20;5.88;;;;;;;3.10;74.10;97322.13;5033187;28;20037;-93
2020/12/29 01:28:56;;;;;;;10.00;6.75;;;;;;;3.14;73.74;97337.31;5031139;28;20494;-94
2020/12/29 01:31:29;;;;;;;11.57;6.95;;;;;;;3.08;73.18;97329.22;5031386;28;20083;-93
2020/12/29 01:33:56;;;;;;;11.23;6.05;;;;;;;3.06;73.64;97329.38;5030038;28;20042;-93
2020/12/29 01:36:22;;;;;;;12.90;6.28;;;;;;;3.01;73.40;97321.19;5031599;28;20076;-93
2020/12/29 01:38:48;;;;;;;12.70;6.55;;;;;;;3.09;73.64;97339.47;5031559;28;20029;-93
2020/12/29 01:41:14;;;;;;;17.95;7.30;;;;;;;3.09;74.04;97333.47;5031156;28;20032;-93
2020/12/29 01:43:39;;;;;;;11.80;6.13;;;;;;;3.01;73.97;97328.13;5031935;28;20053;-93
2020/12/29 01:46:05;;;;;;;13.55;6.40;;;;;;;3.06;73.06;97341.50;5031563;28;20065;-94
2020/12/29 01:48:30;;;;;;;13.55;6.93;;;;;;;3.04;73.67;97336.47;5031026;28;20025;-93
2020/12/29 01:50:56;;;;;;;10.23;6.22;;;;;;;3.02;73.57;97343.56;5031544;28;20489;-93
2020/12/29 01:53:22;;;;;;;10.18;5.93;;;;;;;2.96;73.86;97337.13;5049267;28;20515;-94
2020/12/29 01:55:47;;;;;;;11.25;6.07;;;;;;;3.13;73.28;97345.22;5045530;28;20056;-92
2020/12/29 01:58:13;;;;;;;9.40;5.75;;;;;;;3.01;73.21;97339.31;5053010;28;20049;-94
2020/12/29 02:00:38;;;;;;;12.32;7.82;;;;;;;2.98;74.23;97337.81;5043620;28;21023;-93
2020/12/29 02:03:05;;;;;;;12.07;5.70;;;;;;;2.90;73.12;97321.28;5032147;28;20017;-94
2020/12/29 02:05:31;;;;;;;8.55;5.72;;;;;;;2.91;73.18;97338.47;5047099;28;20033;-93
2020/12/29 02:07:57;;;;;;;10.90;6.65;;;;;;;2.92;73.64;97337.50;5028396;28;20030;-93
2020/12/29 02:10:23;;;;;;;9.60;5.35;;;;;;;2.94;73.29;97343.38;5030226;28;20025;-93
2020/12/29 02:12:49;;;;;;;10.07;5.65;;;;;;;2.93;73.16;97347.75;5031254;28;20100;-93
2020/12/29 02:15:14;;;;;;;8.70;5.30;;;;;;;2.90;73.46;97353.22;5035128;28;20079;-94
2020/12/29 02:17:40;;;;;;;8.98;5.35;;;;;;;2.85;73.82;97364.91;5033009;28;20037;-94
2020/12/29 02:20:06;;;;;;;8.82;5.38;;;;;;;2.80;72.85;97359.28;5034961;28;20021;-93
2020/12/29 02:22:32;;;;;;;13.55;6.70;;;;;;;2.86;73.94;97351.81;5035410;28;20030;-94
2020/12/29 02:25:00;;;;;;;13.73;7.18;;;;;;;2.96;74.32;97362.22;5029359;28;20039;-94
2020/12/29 02:27:28;;;;;;;12.57;7.00;;;;;;;2.87;74.04;97352.66;5038681;28;20037;-93
2020/12/29 02:29:54;;;;;;;17.27;6.95;;;;;;;2.80;73.79;97373.06;5039624;28;20056;-93
2020/12/29 02:32:20;;;;;;;12.80;6.85;;;;;;;2.93;74.42;97378.84;5036457;28;20521;-94
2020/12/29 02:37:18;;;;;;;15.88;7.57;;;;;;;3.04;74.65;97377.09;4993389;28;20046;-86
2020/12/29 02:39:48;;;;;;;12.40;6.63;;;;;;;3.05;73.50;97384.75;4994322;28;20537;-86
2020/12/29 02:42:13;;;;;;;14.65;6.43;;;;;;;2.67;73.13;97386.25;4995000;28;20449;-87
2020/12/29 02:44:39;;;;;;;14.25;6.57;;;;;;;2.61;72.69;97379.00;4993904;28;20084;-87
2020/12/29 02:47:04;;;;;;;11.32;6.30;;;;;;;2.71;74.69;97390.22;5013265;28;20034;-87
2020/12/29 02:49:32;;;;;;;10.57;6.60;;;;;;;2.89;75.00;97384.44;5014039;28;20073;-87
2020/12/29 02:51:59;;;;;;;13.13;6.82;;;;;;;2.97;74.02;97393.19;4995449;28;20034;-88
2020/12/29 02:54:24;;;;;;;10.70;6.50;;;;;;;3.02;74.63;97392.81;5012216;28;20028;-88
2020/12/29 02:56:50;;;;;;;12.40;6.53;;;;;;;3.06;74.85;97386.41;5013493;28;20034;-87
2020/12/29 02:59:15;;;;;;;15.27;7.18;;;;;;;3.08;74.46;97378.47;5014307;28;20081;-87
2020/12/29 03:01:40;;;;;;;13.80;7.40;;;;;;;3.30;73.43;97385.25;5012477;28;20030;-87
2020/12/29 03:04:06;;;;;;;13.73;6.63;;;;;;;3.30;72.09;97396.44;5014103;28;20044;-87
2020/12/29 03:06:31;;;;;;;11.82;7.15;;;;;;;3.35;72.11;97398.63;5013334;28;20029;-87
2020/12/29 03:08:57;;;;;;;13.95;7.38;;;;;;;3.33;72.77;97390.16;5013601;28;20037;-87
2020/12/29 03:11:24;;;;;;;13.18;7.20;;;;;;;3.11;72.30;97399.78;5014421;28;20032;-87
2020/12/29 03:13:50;;;;;;;12.32;7.10;;;;;;;3.06;72.95;97390.75;5013151;28;20026;-87
2020/12/29 03:16:15;;;;;;;16.95;6.90;;;;;;;3.04;72.16;97419.44;5013882;28;20064;-87
2020/12/29 03:18:40;;;;;;;12.25;6.60;;;;;;;2.85;71.63;97407.19;5012880;28;20030;-87
2020/12/29 03:21:06;;;;;;;12.50;6.18;;;;;;;3.03;73.63;97417.75;4995242;28;20548;-87
2020/12/29 03:23:31;;;;;;;9.48;6.18;;;;;;;2.91;71.07;97418.81;5010795;28;20101;-87
2020/12/29 03:25:56;;;;;;;12.55;6.85;;;;;;;2.99;71.60;97413.78;5013541;28;20125;-87
2020/12/29 03:28:22;;;;;;;13.45;7.03;;;;;;;3.07;72.61;97411.38;4996144;28;20472;-87
2020/12/29 03:30:48;;;;;;;16.88;8.75;;;;;;;2.71;72.61;97410.94;4996459;28;20041;-87
2020/12/29 03:33:13;;;;;;;16.13;8.35;;;;;;;2.98;72.81;97400.03;5019046;28;20025;-86
2020/12/29 03:35:38;;;;;;;19.33;8.68;;;;;;;2.85;72.03;97403.78;5000920;28;20476;-88
2020/12/29 03:38:04;;;;;;;15.90;8.20;;;;;;;2.95;72.54;97399.47;5013132;28;20091;-87
2020/12/29 03:40:29;;;;;;;19.17;10.20;;;;;;;2.98;73.76;97405.22;5012740;28;20365;-88
2020/12/29 03:42:55;;;;;;;16.15;8.00;;;;;;;3.04;74.01;97411.66;4995441;28;20034;-87
2020/12/29 03:45:20;;;;;;;12.07;7.15;;;;;;;3.09;72.79;97406.88;5013645;28;20030;-88
2020/12/29 03:47:45;;;;;;;16.05;8.77;;;;;;;3.22;72.83;97416.19;4994857;28;20075;-88
2020/12/29 03:50:10;;;;;;;12.57;7.88;;;;;;;3.25;73.20;97411.56;4995294;28;20030;-87
2020/12/29 03:52:36;;;;;;;14.23;7.35;;;;;;;3.12;72.93;97406.63;5011362;28;20045;-88
2020/12/29 03:55:02;;;;;;;12.50;6.45;;;;;;;3.31;72.72;97411.03;4994687;28;20018;-88
2020/12/29 03:57:27;;;;;;;12.98;7.72;;;;;;;3.24;72.12;97403.91;4995981;28;20476;-88
2020/12/29 03:59:52;;;;;;;18.27;8.98;;;;;;;3.24;73.28;97396.13;5011459;28;20080;-88
2020/12/29 04:02:18;;;;;;;18.17;9.10;;;;;;;3.27;72.43;97399.28;5013104;28;20036;-88
2020/12/29 04:04:43;;;;;;;16.00;7.90;;;;;;;3.23;71.96;97421.25;4994614;28;20026;-87
2020/12/29 04:07:08;;;;;;;14.80;8.65;;;;;;;3.00;71.83;97412.84;5013337;28;20077;-88
2020/12/29 04:09:34;;;;;;;16.98;8.77;;;;;;;2.45;73.24;97407.09;5012683;28;20029;-86
2020/12/29 04:11:59;;;;;;;13.90;8.98;;;;;;;2.37;75.02;97407.75;5010426;28;20030;-87
2020/12/29 04:14:25;;;;;;;19.92;10.32;;;;;;;2.63;73.73;97404.78;4994967;28;20018;-88
2020/12/29 04:16:50;;;;;;;21.33;9.75;;;;;;;2.69;73.98;97405.06;5010200;28;20033;-87
2020/12/29 04:19:16;;;;;;;16.55;9.45;;;;;;;2.90;74.83;97417.16;4995362;28;20429;-88
2020/12/29 04:21:41;;;;;;;18.88;9.93;;;;;;;2.77;73.88;97401.84;5011792;28;20030;-88
2020/12/29 04:24:06;;;;;;;19.55;9.27;;;;;;;2.81;75.05;97405.00;4994310;28;20029;-88
2020/12/29 04:26:33;;;;;;;20.05;11.38;;;;;;;2.92;75.04;97410.06;5010521;28;20626;-87
2020/12/29 04:28:59;;;;;;;15.95;9.27;;;;;;;3.13;73.98;97412.63;5012679;28;20431;-87
2020/12/29 04:31:24;;;;;;;26.15;11.25;;;;;;;3.14;73.95;97409.91;5011874;28;20026;-88
2020/12/29 04:33:50;;;;;;;19.13;10.93;;;;;;;3.23;74.37;97417.84;5011594;28;20034;-88
2020/12/29 04:36:15;;;;;;;18.77;10.52;;;;;;;3.28;74.37;97411.31;5011729;28;20034;-88
2020/12/29 04:38:40;;;;;;;20.23;9.68;;;;;;;3.08;73.27;97409.59;5011329;28;20045;-88
2020/12/29 04:41:06;;;;;;;17.65;8.55;;;;;;;3.35;73.95;97421.97;5010691;28;20022;-88
2020/12/29 04:43:32;;;;;;;14.43;9.38;;;;;;;3.03;73.81;97412.59;4997941;28;20037;-87
2020/12/29 04:46:03;;;;;;;19.08;10.05;;;;;;;3.18;74.27;97419.06;5019225;28;20104;-87
2020/12/29 04:48:29;;;;;;;20.17;9.55;;;;;;;3.37;73.82;97414.88;5013846;28;20033;-88
2020/12/29 04:51:07;;;;;;;16.40;8.50;;;;;;;3.41;72.99;97410.25;5011426;28;20088;-87
2020/12/29 04:53:34;;;;;;;14.93;8.48;;;;;;;3.32;73.30;97412.69;5011248;28;20033;-88
2020/12/29 04:56:08;;;;;;;18.30;10.32;;;;;;;3.32;73.06;97414.47;5012361;28;20021;-88
2020/12/29 04:58:35;;;;;;;20.92;10.48;;;;;;;3.13;74.46;97421.22;5010030;28;20054;-88
2020/12/29 05:01:09;;;;;;;16.10;9.27;;;;;;;3.18;74.90;97421.66;5011370;28;20025;-88
2020/12/29 05:03:46;;;;;;;19.15;10.23;;;;;;;3.48;73.85;97417.38;4994760;28;20030;-88
2020/12/29 05:06:12;;;;;;;19.13;11.00;;;;;;;3.64;75.46;97419.44;4993626;28;20128;-87
2020/12/29 05:08:46;;;;;;;20.50;9.65;;;;;;;3.61;74.99;97418.91;5011358;28;20025;-88
2020/12/29 05:11:12;;;;;;;15.30;8.25;;;;;;;3.47;74.56;97402.75;5011263;28;20032;-88
2020/12/29 05:13:37;;;;;;;13.60;7.93;;;;;;;3.60;75.37;97418.09;5012088;28;20026;-87
2020/12/29 05:16:02;;;;;;;14.32;8.52;;;;;;;3.67;75.46;97413.97;4992650;28;20018;-87
2020/12/29 05:18:28;;;;;;;15.75;8.20;;;;;;;3.78;75.64;97423.44;5010873;28;20387;-88
2020/12/29 05:20:53;;;;;;;16.50;8.70;;;;;;;3.77;74.85;97421.78;4993571;28;20080;-88
2020/12/29 05:23:18;;;;;;;11.18;8.05;;;;;;;3.66;75.02;97430.50;4993005;28;20566;-87
2020/12/29 05:25:47;;;;;;;13.75;7.78;;;;;;;3.85;74.95;97442.72;5011536;28;20033;-87
2020/12/29 05:28:13;;;;;;;11.93;7.88;;;;;;;3.83;75.29;97420.44;5011411;28;20391;-87
2020/12/29 05:30:40;;;;;;;12.68;7.35;;;;;;;4.00;75.32;97439.72;4992099;28;20026;-87
2020/12/29 05:33:14;;;;;;;15.25;8.27;;;;;;;4.00;75.10;97431.94;4994553;28;20387;-87
2020/12/29 05:35:40;;;;;;;16.75;8.05;;;;;;;4.10;75.26;97438.75;5011070;28;20115;-87
2020/12/29 05:38:10;;;;;;;14.52;8.57;;;;;;;4.12;74.91;97436.03;5010882;28;20069;-87
2020/12/29 05:40:36;;;;;;;14.55;8.15;;;;;;;4.15;74.18;97449.56;5011756;28;20030;-86
2020/12/29 05:43:02;;;;;;;15.63;9.20;;;;;;;4.22;74.85;97444.63;5010717;28;20041;-87
2020/12/29 05:45:29;;;;;;;18.30;8.73;;;;;;;4.42;74.77;97442.84;5010784;28;20125;-87
2020/12/29 05:47:56;;;;;;;12.27;7.85;;;;;;;4.55;73.98;97456.38;5010939;28;20048;-86
2020/12/29 05:50:22;;;;;;;12.15;7.72;;;;;;;4.62;73.67;97459.25;5015615;28;20104;-86
2020/12/29 05:52:58;;;;;;;15.57;7.07;;;;;;;4.73;74.02;97459.06;5014382;28;20030;-87
2020/12/29 05:55:24;;;;;;;8.88;5.43;;;;;;;4.77;73.29;97457.84;4978712;28;20444;-86
2020/12/29 05:58:11;;;;;;;11.32;6.53;;;;;;;4.82;73.49;97461.78;4997442;28;20058;-86
2020/12/29 06:00:38;;;;;;;7.55;5.15;;;;;;;4.91;74.16;97463.56;5005857;28;20029;-86
2020/12/29 06:03:05;;;;;;;7.90;4.72;;;;;;;4.93;73.46;97478.03;5015142;28;20085;-87
2020/12/29 06:05:32;;;;;;;7.45;4.68;;;;;;;4.94;73.85;97468.50;5015706;28;20097;-87
2020/12/29 06:08:00;;;;;;;10.48;5.32;;;;;;;5.03;73.01;97478.03;5014845;28;20041;-86
2020/12/29 06:10:28;;;;;;;8.73;5.50;;;;;;;4.91;72.57;97482.56;4997402;28;20076;-86
2020/12/29 06:13:02;;;;;;;8.15;5.05;;;;;;;4.95;72.95;97486.53;4996029;28;20128;-86
2020/12/29 06:15:28;;;;;;;8.20;4.85;;;;;;;5.01;73.37;97485.16;5008651;28;20041;-86
2020/12/29 06:17:56;;;;;;;8.15;4.97;;;;;;;5.03;73.19;97483.22;5013852;28;20499;-86
2020/12/29 06:20:22;;;;;;;9.07;5.60;;;;;;;5.01;73.56;97485.16;5012682;28;20038;-86
2020/12/29 06:22:55;;;;;;;9.95;5.80;;;;;;;4.97;72.98;97483.78;5014893;28;20025;-87
2020/12/29 06:25:22;;;;;;;9.27;5.70;;;;;;;5.03;73.41;97501.44;5013878;28;20037;-87
2020/12/29 06:27:52;;;;;;;8.25;5.60;;;;;;;5.02;73.21;97494.59;5010810;28;20025;-87
2020/12/29 06:30:20;;;;;;;8.75;6.03;;;;;;;5.06;72.79;97508.97;4992054;28;20476;-87
2020/12/29 06:32:48;;;;;;;7.10;5.63;;;;;;;5.05;73.23;97504.72;5014746;28;20032;-87
2020/12/29 06:35:16;;;;;;;9.93;5.43;;;;;;;5.09;73.36;97510.44;5014195;28;20079;-87
2020/12/29 06:38:06;;;;;;;8.25;5.30;;;;;;;5.15;73.56;97521.13;5014512;28;20034;-88
2020/12/29 06:40:32;;;;;;;8.60;4.68;;;;;;;5.14;73.02;97513.47;4997446;28;20054;-87
2020/12/29 06:42:58;;;;;;;9.20;4.43;;;;;;;5.07;74.25;97535.78;4999447;28;20085;-87
2020/12/29 06:45:24;;;;;;;9.30;4.85;;;;;;;5.18;73.87;97534.81;5015773;28;20025;-87
2020/12/29 06:47:49;;;;;;;11.38;6.55;;;;;;;5.31;73.60;97533.56;5017734;28;20094;-87
2020/12/29 06:50:22;;;;;;;11.02;7.20;;;;;;;5.40;73.94;97539.66;5017893;28;20056;-86
2020/12/29 06:53:00;;;;;;;10.57;7.07;;;;;;;5.33;73.40;97544.63;5010159;28;20443;-87
2020/12/29 06:55:36;;;;;;;9.00;6.13;;;;;;;5.40;73.79;97551.88;5015833;28;20030;-87
2020/12/29 06:58:04;;;;;;;8.43;5.82;;;;;;;5.35;73.99;97562.69;5016026;28;20034;-87
2020/12/29 07:00:29;;;;;;;13.02;6.50;;;;;;;5.31;73.67;97566.53;5017834;28;20180;-87
2020/12/29 07:02:55;;;;;;;9.02;5.43;;;;;;;5.40;73.33;97564.88;5019833;28;20485;-88
2020/12/29 07:05:29;;;;;;;9.63;5.70;;;;;;;5.33;73.44;97582.81;5000982;28;20056;-85
2020/12/29 07:08:07;;;;;;;7.50;4.90;;;;;;;5.57;72.55;97583.19;5014390;28;20038;-86
2020/12/29 07:10:44;;;;;;;9.65;6.07;;;;;;;5.57;72.38;97591.00;4997548;28;20038;-87
2020/12/29 07:13:13;;;;;;;9.43;5.20;;;;;;;5.46;72.92;97592.94;5014259;28;20079;-87
2020/12/29 07:15:49;;;;;;;10.18;5.32;;;;;;;5.41;73.43;97595.13;4995765;28;20450;-87
2020/12/29 07:18:26;;;;;;;10.57;4.90;;;;;;;5.28;72.94;97588.44;5011595;28;20030;-88
2020/12/29 07:20:56;;;;;;;7.93;4.43;;;;;;;5.30;72.80;97603.94;4995547;28;20093;-87
2020/12/29 07:23:24;;;;;;;7.30;4.35;;;;;;;5.34;72.67;97607.88;5012265;28;20030;-85
2020/12/29 07:25:51;;;;;;;6.93;4.88;;;;;;;5.33;72.39;97624.44;5012871;28;20022;-85
2020/12/29 07:28:23;;;;;;;10.63;5.30;;;;;;;5.33;72.42;97614.88;5012848;28;20026;-85
2020/12/29 07:30:50;;;;;;;10.93;5.72;;;;;;;5.26;73.50;97633.78;5014157;28;20112;-86
2020/12/29 07:33:20;;;;;;;11.73;5.80;;;;;;;5.14;72.80;97638.31;5019774;28;20431;-85
2020/12/29 07:35:46;;;;;;;14.90;6.65;;;;;;;5.30;72.16;97635.16;5013268;28;20036;-86
2020/12/29 07:38:14;;;;;;;12.88;6.78;;;;;;;5.21;72.56;97642.00;5012600;28;20029;-85
2020/12/29 07:40:41;;;;;;;10.05;5.72;;;;;;;5.25;72.85;97655.53;4995948;28;20439;-85
2020/12/29 07:43:07;;;;;;;9.13;6.03;;;;;;;5.44;72.64;97663.34;5012719;28;20072;-85
2020/12/29 07:45:33;;;;;;;12.82;6.38;;;;;;;5.32;72.33;97674.84;5012412;28;20030;-85
2020/12/29 07:48:00;;;;;;;9.85;5.32;;;;;;;5.28;71.51;97673.50;5012446;28;20030;-85
2020/12/29 07:50:26;;;;;;;9.10;5.60;;;;;;;5.11;73.29;97681.00;5012413;28;20547;-85
2020/12/29 07:53:03;;;;;;;10.52;6.03;;;;;;;5.08;73.14;97678.69;5012421;28;20125;-86
2020/12/29 07:55:28;;;;;;;9.77;5.30;;;;;;;5.31;72.54;97694.00;5004534;28;20416;-86
2020/12/29 07:57:55;;;;;;;8.38;4.90;;;;;;;5.29;72.27;97695.94;5009699;28;20036;-85
2020/12/29 08:00:20;;;;;;;8.32;3.88;;;;;;;5.35;72.56;97701.44;5012455;28;20022;-85
2020/12/29 08:02:51;;;;;;;5.95;3.78;;;;;;;5.40;72.71;97703.59;5011555;28;20113;-85
2020/12/29 08:05:20;;;;;;;11.88;4.82;;;;;;;5.41;72.95;97707.03;5012716;28;20105;-86
2020/12/29 08:08:21;;;;;;;6.63;5.05;;;;;;;4.92;73.78;97717.41;5003622;28;20458;-85
2020/12/29 08:10:46;;;;;;;14.18;6.70;;;;;;;5.09;72.89;97719.34;4931548;29;20035;-85
2020/12/29 08:13:21;;;;;;;13.00;7.75;;;;;;;5.03;72.98;97721.66;4994707;28;20046;-85
2020/12/29 08:15:48;;;;;;;16.33;8.02;;;;;;;5.05;72.78;97728.38;5005151;28;20436;-85
2020/12/29 08:18:14;;;;;;;15.90;8.48;;;;;;;4.97;72.84;97741.22;5010206;28;20026;-86
2020/12/29 08:20:57;;;;;;;14.63;9.07;;;;;;;5.06;72.93;97740.44;5011837;28;20374;-85
2020/12/29 08:23:27;;;;;;;13.90;7.40;;;;;;;4.94;71.84;97746.72;5011260;28;20388;-85
2020/12/29 08:25:58;;;;;;;10.05;7.70;;;;;;;5.07;72.14;97760.25;4989749;28;20487;-85
2020/12/29 08:28:30;;;;;;;15.57;7.68;;;;;;;5.07;72.27;97765.47;5021044;28;20035;-83
2020/12/29 08:30:56;;;;;;;10.68;6.88;;;;;;;5.09;71.53;97767.94;5023547;28;20551;-83
2020/12/29 08:33:24;;;;;;;14.20;8.40;;;;;;;5.00;71.90;97769.56;5016923;28;20034;-86
2020/12/29 08:35:53;;;;;;;13.43;7.57;;;;;;;5.07;72.62;97782.84;5000102;28;20108;-87
2020/12/29 08:38:30;;;;;;;15.07;8.48;;;;;;;5.09;72.51;97789.56;5009396;28;20492;-87
2020/12/29 08:40:58;;;;;;;11.52;7.10;;;;;;;5.15;72.53;97799.44;5012819;28;20026;-87
2020/12/29 08:43:28;;;;;;;12.30;7.43;;;;;;;5.14;71.90;97803.00;5011478;28;20442;-87
2020/12/29 08:46:01;;;;;;;13.90;8.90;;;;;;;5.06;72.24;97808.03;5013069;28;20034;-87
2020/12/29 08:48:26;;;;;;;13.82;8.23;;;;;;;5.00;72.48;97813.78;5013065;28;20054;-88
2020/12/29 08:50:52;;;;;;;17.48;10.00;;;;;;;4.82;72.98;97803.19;5006877;28;20084;-87
2020/12/29 08:53:27;;;;;;;14.57;8.50;;;;;;;4.96;72.64;97835.81;4994358;28;20487;-87
2020/12/29 08:55:53;;;;;;;14.57;8.93;;;;;;;4.85;73.53;97833.28;5002139;28;20033;-87
2020/12/29 08:58:26;;;;;;;15.75;9.27;;;;;;;4.92;72.86;97839.63;4994174;28;20091;-87
2020/12/29 09:00:52;;;;;;;16.85;10.60;;;;;;;5.00;73.22;97836.38;4994572;28;20396;-87
2020/12/29 09:03:27;;;;;;;14.07;9.63;;;;;;;5.09;72.99;97848.56;4995097;28;20037;-87
2020/12/29 09:05:54;;;;;;;16.10;8.60;;;;;;;5.08;72.41;97833.94;4990339;28;20054;-87
2020/12/29 09:08:32;;;;;;;13.93;8.27;;;;;;;5.04;72.75;97837.75;4996049;28;20045;-87
2020/12/29 09:11:14;;;;;;;18.48;9.25;;;;;;;5.12;73.22;97856.13;5031139;28;20108;-87
2020/12/29 09:14:05;;;;;;;16.73;8.50;;;;;;;5.28;73.07;97861.63;5013405;28;20045;-87
2020/12/29 09:16:30;;;;;;;12.18;6.85;;;;;;;5.29;73.10;97871.09;5025732;28;20487;-87
2020/12/29 09:18:56;;;;;;;13.50;7.75;;;;;;;5.25;72.59;97874.91;5029948;28;20036;-87
2020/12/29 09:21:25;;;;;;;15.55;7.88;;;;;;;5.25;73.78;97871.47;5012866;28;20071;-86
2020/12/29 09:24:02;;;;;;;11.65;8.48;;;;;;;5.29;73.23;97878.91;5035086;28;20084;-87
2020/12/29 09:26:29;;;;;;;14.18;8.68;;;;;;;5.30;71.61;97874.50;5014755;28;20073;-87
2020/12/29 09:28:56;;;;;;;12.77;8.02;;;;;;;5.46;72.53;97881.81;5016081;28;20175;-87
2020/12/29 09:31:28;;;;;;;15.70;9.68;;;;;;;5.42;72.69;97894.25;5016310;28;20129;-87
2020/12/29 09:33:54;;;;;;;14.27;9.55;;;;;;;5.53;72.68;97899.34;5016125;28;20109;-87
2020/12/29 09:36:23;;;;;;;11.63;8.73;;;;;;;5.57;71.84;97907.72;4999564;28;20121;-87
2020/12/29 09:38:50;;;;;;;14.25;9.13;;;;;;;5.71;72.62;97922.94;5012186;28;20057;-87
2020/12/29 09:41:16;;;;;;;16.45;10.75;;;;;;;5.69;72.44;97917.06;5002904;28;20034;-86
2020/12/29 09:43:46;;;;;;;15.23;8.88;;;;;;;5.68;72.65;97930.22;4996379;28;20033;-87
2020/12/29 09:46:12;;;;;;;16.40;9.90;;;;;;;5.61;71.58;97927.31;5014145;28;20038;-87
2020/12/29 09:48:38;;;;;;;16.70;8.93;;;;;;;5.70;72.18;97936.09;5015858;28;20037;-87
2020/12/29 09:51:04;;;;;;;15.10;8.73;;;;;;;5.76;70.75;97938.16;4998241;28;20507;-87
2020/12/29 09:53:29;;;;;;;14.23;8.98;;;;;;;5.68;71.05;97941.44;4999967;28;20091;-86
2020/12/29 09:55:55;;;;;;;13.38;8.10;;;;;;;5.63;71.26;97938.44;5018264;28;20026;-87
2020/12/29 09:58:21;;;;;;;13.43;8.65;;;;;;;5.71;71.66;97950.78;5017169;28;20403;-87
2020/12/29 10:00:47;;;;;;;12.48;8.57;;;;;;;5.64;70.79;97953.06;5017080;28;20029;-88
2020/12/29 10:03:15;;;;;;;15.50;9.05;;;;;;;5.63;71.00;97953.19;5027814;28;20099;-87
2020/12/29 10:05:42;;;;;;;19.50;9.48;;;;;;;5.66;70.74;97971.16;5011313;28;20116;-86
2020/12/29 10:08:07;;;;;;;13.60;9.63;;;;;;;5.66;70.93;97956.38;5013077;28;20029;-87
2020/12/29 10:10:33;;;;;;;18.08;10.68;;;;;;;5.91;71.35;97962.88;5014637;28;20523;-87
2020/12/29 10:12:58;;;;;;;18.23;10.45;;;;;;;6.17;70.60;97975.41;5013626;28;20092;-88
2020/12/29 10:15:25;;;;;;;16.23;10.20;;;;;;;6.57;69.91;97977.03;5010621;28;20037;-88
2020/12/29 10:17:50;;;;;;;16.58;10.85;;;;;;;7.53;67.62;97975.16;5014037;28;20033;-88
2020/12/29 10:20:15;;;;;;;16.33;10.85;;;;;;;8.49;63.16;97972.09;5011847;28;20034;-87
2020/12/29 10:22:41;;;;;;;14.48;10.13;;;;;;;9.46;61.92;97974.69;5003449;28;20113;-87
2020/12/29 10:25:10;;;;;;;13.85;9.30;;;;;;;10.26;60.06;97969.81;5013913;28;20025;-88
2020/12/29 10:27:36;;;;;;;10.80;7.63;;;;;;;10.58;57.85;97976.13;5014809;28;20041;-89
2020/12/29 10:30:01;;;;;;;11.68;7.68;;;;;;;11.16;57.56;97976.91;5014203;28;20547;-88
2020/12/29 10:32:26;;;;;;;11.23;8.27;;;;;;;11.62;57.33;97977.06;5013456;28;20040;-88
2020/12/29 10:34:52;;;;;;;8.45;5.75;;;;;;;11.54;56.67;97960.53;5009561;28;20042;-88
2020/12/29 10:37:17;;;;;;;10.45;7.30;;;;;;;12.05;55.93;97951.25;5022780;28;20514;-89
2020/12/29 10:39:43;;;;;;;11.43;6.85;;;;;;;12.10;53.80;97980.50;5014217;28;20104;-89
2020/12/29 10:42:08;;;;;;;9.13;6.65;;;;;;;12.49;53.44;97957.69;5012655;28;20092;-88
2020/12/29 10:44:34;;;;;;;10.10;6.30;;;;;;;12.17;55.67;97964.84;5012805;28;20060;-89
2020/12/29 10:46:59;;;;;;;9.55;6.60;;;;;;;11.32;57.87;97981.28;5013091;28;20030;-88
2020/12/29 10:49:24;;;;;;;9.32;5.68;;;;;;;11.00;58.12;97983.00;5013607;28;20072;-89
2020/12/29 10:51:50;;;;;;;9.13;5.95;;;;;;;10.32;58.33;97995.44;5017491;28;20361;-89
2020/12/29 10:54:17;;;;;;;10.00;6.78;;;;;;;9.70;60.80;98010.66;5014223;28;20058;-88
2020/12/29 10:56:42;;;;;;;9.23;7.03;;;;;;;9.00;62.97;98016.78;5014190;28;20120;-88
2020/12/29 10:59:07;;;;;;;12.23;8.00;;;;;;;8.59;63.01;98011.25;5014433;28;20519;-88
2020/12/29 11:01:33;;;;;;;10.38;7.53;;;;;;;8.85;64.25;98010.47;5013910;28;20076;-89
2020/12/29 11:03:58;;;;;;;9.95;6.78;;;;;;;8.64;64.54;98010.78;5015153;28;20479;-89
2020/12/29 11:06:24;;;;;;;9.40;7.13;;;;;;;8.39;64.33;98025.41;5014802;28;20029;-89
2020/12/29 11:08:50;;;;;;;8.65;6.97;;;;;;;8.66;63.76;98017.50;5014264;28;20088;-89
2020/12/29 11:11:16;;;;;;;10.23;6.32;;;;;;;8.59;62.90;98015.63;5012180;28;20091;-88
2020/12/29 11:13:42;;;;;;;13.15;8.07;;;;;;;9.20;64.20;98035.75;5010375;28;20057;-89
2020/12/29 11:16:19;;;;;;;12.75;7.28;;;;;;;8.90;63.53;98039.59;5005538;28;20030;-89
2020/12/29 11:18:46;;;;;;;8.85;7.32;;;;;;;8.72;65.06;98032.59;5015750;28;20112;-89
2020/12/29 11:21:13;;;;;;;27.65;8.88;;;;;;;8.56;64.71;98019.38;5016188;28;20018;-88
2020/12/29 11:23:39;;;;;;;8.85;7.25;;;;;;;8.96;65.09;98041.63;5023887;28;20085;-88
2020/12/29 11:26:04;;;;;;;9.57;7.68;;;;;;;8.81;63.37;98032.69;5021197;28;20076;-88
2020/12/29 11:28:30;;;;;;;15.45;8.88;;;;;;;8.64;65.18;98032.53;5017788;28;20476;-88
2020/12/29 11:30:55;;;;;;;10.07;7.40;;;;;;;8.50;65.96;98038.28;5013838;28;20026;-89
2020/12/29 11:33:20;;;;;;;9.50;6.80;;;;;;;8.89;64.56;98044.03;5009844;28;20518;-88
2020/12/29 11:35:47;;;;;;;9.20;6.78;;;;;;;8.76;64.59;98034.91;5013326;28;20396;-89
2020/12/29 11:38:20;;;;;;;11.55;7.15;;;;;;;8.70;64.34;98031.91;5011266;28;20030;-89